Time;durP1;ratioP1;P1;durP2;ratioP2;P2;SDS_P1;SDS_P2;PMS_P1;PMS_P2;Temp;Humidity;BMP_temperature;BMP_pressure;BME280_temperature;BME280_humidity;BME280_pressure;Samples;Min_cycle;Max_cycle;Signal;HPM_P1;HPM_P2
2022/01/20 00:00:33;;;;;;;9.30;2.47;;;;;;;18.57;44.50;102411.91;5054147;28;20036;-66
2022/01/20 00:03:02;;;;;;;7.35;2.20;;;;;;;18.53;44.20;102406.88;5054050;28;20025;-66
2022/01/20 00:08:09;;;;;;;10.07;2.85;;;;;;;18.47;44.58;102400.19;5054341;28;20072;-65
2022/01/20 00:27:07;;;;;;;10.38;2.53;;;;;;;18.28;44.43;102413.59;5053002;28;20511;-67
2022/01/20 00:29:48;;;;;;;9.32;2.35;;;;;;;18.28;44.32;102413.59;5053311;28;20060;-65
2022/01/20 00:32:15;;;;;;;8.32;2.20;;;;;;;18.24;44.36;102412.06;5052390;28;20041;-67
2022/01/20 00:37:22;;;;;;;7.72;2.30;;;;;;;18.19;44.36;102409.69;5053504;28;20053;-66
2022/01/20 00:39:48;;;;;;;11.68;2.72;;;;;;;18.19;44.67;102412.31;5052883;28;20033;-67
2022/01/20 00:42:15;;;;;;;7.85;2.10;;;;;;;18.18;44.35;102412.41;5053068;28;20396;-65
2022/01/20 00:44:40;;;;;;;7.07;2.22;;;;;;;18.16;44.61;102420.41;5053457;28;20064;-66
2022/01/20 00:47:06;;;;;;;8.20;2.58;;;;;;;18.13;44.47;102418.81;5052491;28;20056;-66
2022/01/20 00:49:31;;;;;;;8.18;2.28;;;;;;;18.12;44.63;102408.34;5053450;28;20032;-67
2022/01/20 00:51:56;;;;;;;8.63;2.33;;;;;;;18.10;44.43;102402.28;5053439;28;20052;-66
2022/01/20 00:54:22;;;;;;;10.10;2.58;;;;;;;18.09;44.72;102397.97;5051565;28;20021;-66
2022/01/20 00:56:47;;;;;;;8.38;2.08;;;;;;;18.07;44.41;102398.06;5053271;28;20035;-66
2022/01/20 00:59:15;;;;;;;8.98;2.22;;;;;;;18.07;44.24;102405.09;5053008;28;20020;-66
2022/01/20 01:01:41;;;;;;;6.68;1.98;;;;;;;18.03;44.48;102414.97;5052236;28;20024;-66
2022/01/20 01:04:06;;;;;;;8.65;2.20;;;;;;;18.02;44.21;102417.69;5052976;28;20024;-66
2022/01/20 01:06:48;;;;;;;8.10;1.98;;;;;;;18.00;44.63;102427.50;5052849;28;20041;-65
2022/01/20 01:09:14;;;;;;;9.90;2.45;;;;;;;18.00;44.55;102419.59;5052037;28;20029;-66
2022/01/20 01:11:42;;;;;;;10.50;2.58;;;;;;;17.98;44.59;102435.50;5052899;28;20055;-67
2022/01/20 01:14:07;;;;;;;8.80;2.25;;;;;;;17.96;44.34;102429.47;5051993;28;20051;-67
2022/01/20 01:20:06;;;;;;;9.32;2.00;;;;;;;17.94;44.18;102440.09;5052805;28;20025;-67
2022/01/20 01:20:14;;;;;;;8.82;2.58;;;;;;;17.92;44.40;102438.47;5052403;28;20041;-66
2022/01/20 01:24:54;;;;;;;10.10;2.35;;;;;;;17.91;44.57;102439.38;5053070;28;20079;-65
2022/01/20 01:27:23;;;;;;;9.82;2.20;;;;;;;17.88;44.41;102437.78;5052497;28;20469;-65
2022/01/20 01:32:30;;;;;;;7.25;1.90;;;;;;;17.86;44.72;102430.84;5052499;28;20484;-66
2022/01/20 01:34:56;;;;;;;7.68;2.22;;;;;;;17.83;44.42;102441.56;5052786;28;20033;-66
2022/01/20 01:40:12;;;;;;;9.35;2.58;;;;;;;17.81;44.31;102440.81;5042559;28;20453;-66
2022/01/20 01:42:47;;;;;;;6.70;2.03;;;;;;;17.80;44.60;102441.75;5052633;28;20155;-66
2022/01/20 01:45:40;;;;;;;6.18;1.80;;;;;;;17.79;44.33;102440.91;5052646;28;20052;-65
2022/01/20 01:48:05;;;;;;;7.15;1.70;;;;;;;17.79;44.27;102435.63;5053376;28;20121;-66
2022/01/20 01:50:34;;;;;;;7.90;1.75;;;;;;;17.81;44.68;102440.81;5054712;28;20120;-66
2022/01/20 01:53:05;;;;;;;6.15;1.90;;;;;;;17.83;44.37;102439.81;5057219;28;20025;-66
2022/01/20 01:55:32;;;;;;;6.25;1.90;;;;;;;17.86;44.56;102444.03;5056877;28;20025;-66
2022/01/20 01:57:57;;;;;;;6.70;1.48;;;;;;;17.88;44.33;102443.06;5059161;28;20508;-66
2022/01/20 02:00:23;;;;;;;7.75;2.10;;;;;;;17.91;44.51;102449.94;5058787;28;20025;-66
2022/01/20 02:02:51;;;;;;;7.22;1.63;;;;;;;17.92;44.29;102438.47;5057560;28;20040;-66
2022/01/20 02:05:23;;;;;;;8.57;2.10;;;;;;;17.93;44.13;102440.19;5059242;28;20048;-66
2022/01/20 02:18:50;;;;;;;5.57;1.60;;;;;;;17.99;43.77;102446.88;5056505;28;20040;-67
2022/01/20 02:21:16;;;;;;;6.05;1.80;;;;;;;17.99;43.62;102453.03;5056047;28;20024;-67
2022/01/20 02:23:42;;;;;;;6.68;1.90;;;;;;;17.98;43.86;102455.75;5056430;28;20029;-67
2022/01/20 02:26:08;;;;;;;7.35;1.98;;;;;;;17.98;43.89;102461.88;5055359;28;20025;-67
2022/01/20 02:28:34;;;;;;;7.57;1.48;;;;;;;17.97;43.82;102460.16;5056190;28;20405;-66
2022/01/20 02:31:00;;;;;;;5.53;1.52;;;;;;;17.97;43.69;102462.78;5056204;28;20396;-66
2022/01/20 02:33:28;;;;;;;6.88;1.88;;;;;;;17.96;43.66;102445.28;5055116;28;20025;-66
2022/01/20 02:36:07;;;;;;;8.30;1.70;;;;;;;17.95;43.97;102444.41;5056227;28;20110;-66
2022/01/20 02:38:40;;;;;;;8.05;1.60;;;;;;;17.95;44.06;102448.84;5055153;28;20048;-66
2022/01/20 02:46:36;;;;;;;7.25;1.58;;;;;;;17.96;44.31;102440.00;5055112;28;20094;-67
2022/01/20 02:49:03;;;;;;;5.50;1.30;;;;;;;17.96;43.96;102434.72;5055757;28;20029;-67
2022/01/20 02:51:29;;;;;;;5.50;1.38;;;;;;;17.98;43.89;102442.56;5055297;28;20519;-67
2022/01/20 02:53:54;;;;;;;6.05;1.60;;;;;;;17.99;44.27;102450.41;5054885;28;20029;-67
2022/01/20 02:56:22;;;;;;;6.07;1.50;;;;;;;18.00;44.15;102446.81;5055420;28;20090;-67
2022/01/20 02:58:48;;;;;;;5.35;1.40;;;;;;;18.01;43.81;102442.38;5055472;28;20481;-67
2022/01/20 03:01:14;;;;;;;5.53;1.17;;;;;;;18.01;43.92;102431.81;5054418;28;20039;-67
2022/01/20 03:03:39;;;;;;;5.80;1.40;;;;;;;18.02;44.15;102433.53;5055344;28;20035;-67
2022/01/20 03:06:04;;;;;;;7.00;1.60;;;;;;;18.02;43.70;102429.09;5055458;28;20032;-67
2022/01/20 03:08:30;;;;;;;9.32;1.60;;;;;;;18.02;43.91;102418.53;5054377;28;20439;-67
2022/01/20 03:10:58;;;;;;;5.47;1.33;;;;;;;18.00;43.86;102420.41;5055302;28;20040;-67
2022/01/20 03:13:23;;;;;;;8.07;1.63;;;;;;;18.02;43.62;102426.44;5054853;28;20541;-67
2022/01/20 03:15:48;;;;;;;7.10;1.27;;;;;;;18.00;44.03;102430.97;5053875;28;20119;-66
2022/01/20 03:18:14;;;;;;;6.55;1.50;;;;;;;17.99;43.76;102431.94;5054628;28;20052;-66
2022/01/20 03:20:40;;;;;;;8.68;1.27;;;;;;;18.00;43.68;102427.50;5054441;28;20060;-66
2022/01/20 03:23:06;;;;;;;5.60;1.42;;;;;;;18.00;43.75;102419.59;5054925;28;20072;-66
2022/01/20 03:25:31;;;;;;;6.30;1.40;;;;;;;17.98;43.98;102414.38;5055031;28;20064;-66
2022/01/20 03:27:58;;;;;;;4.95;1.40;;;;;;;17.97;43.53;102407.41;5054355;28;20456;-66
2022/01/20 03:30:25;;;;;;;7.20;1.80;;;;;;;17.95;43.62;102415.41;5054738;28;20120;-66
2022/01/20 03:32:50;;;;;;;7.28;1.30;;;;;;;17.96;43.78;102413.63;5054836;28;20464;-67
2022/01/20 03:35:24;;;;;;;6.03;1.40;;;;;;;17.95;43.64;102419.84;5053714;28;20075;-67
2022/01/20 03:37:50;;;;;;;4.75;1.38;;;;;;;17.94;44.11;102412.84;5054603;28;20045;-67
2022/01/20 03:40:17;;;;;;;6.57;1.63;;;;;;;17.96;43.85;102408.34;5054512;28;20076;-67
2022/01/20 03:42:42;;;;;;;6.75;1.48;;;;;;;17.96;44.08;102405.72;5053785;28;20033;-67
2022/01/20 03:45:08;;;;;;;5.30;1.60;;;;;;;17.97;44.07;102412.69;5054193;28;20037;-67
2022/01/20 03:47:34;;;;;;;7.28;1.33;;;;;;;17.98;44.02;102413.56;5054477;28;20273;-67
2022/01/20 03:52:25;;;;;;;6.80;1.40;;;;;;;17.99;43.58;102413.47;5054140;28;20025;-67
2022/01/20 03:54:50;;;;;;;5.05;1.05;;;;;;;17.99;43.69;102410.81;5054572;28;20111;-67
2022/01/20 03:57:15;;;;;;;3.87;1.10;;;;;;;18.00;43.60;102412.50;5053429;28;20388;-67
2022/01/20 03:59:41;;;;;;;4.80;1.40;;;;;;;17.99;43.65;102409.94;5054333;28;20420;-67
2022/01/20 04:02:06;;;;;;;7.55;1.27;;;;;;;17.99;43.60;102400.28;5054029;28;20040;-67
2022/01/20 04:04:31;;;;;;;5.43;1.60;;;;;;;17.99;43.80;102408.19;5053345;28;20029;-67
2022/01/20 04:06:57;;;;;;;6.38;1.35;;;;;;;18.00;43.55;102407.22;5054200;28;20029;-67
2022/01/20 04:09:22;;;;;;;6.32;1.50;;;;;;;18.02;43.85;102417.69;5054094;28;20033;-67
2022/01/20 04:11:49;;;;;;;5.40;1.33;;;;;;;18.03;43.93;102420.25;5053474;28;20111;-67
2022/01/20 04:14:14;;;;;;;5.95;1.35;;;;;;;18.03;43.81;102419.41;5053753;28;20033;-66
2022/01/20 04:17:00;;;;;;;5.20;1.20;;;;;;;18.04;43.53;102426.38;5054144;28;20033;-67
2022/01/20 04:19:30;;;;;;;5.53;1.65;;;;;;;18.04;43.22;102429.88;5053641;28;20043;-67
2022/01/20 04:21:56;;;;;;;6.03;1.60;;;;;;;18.05;43.28;102428.09;5054116;28;20041;-67
2022/01/20 04:24:21;;;;;;;7.13;1.38;;;;;;;18.03;43.42;102422.88;5053077;28;20075;-66
2022/01/20 04:26:59;;;;;;;8.23;1.40;;;;;;;18.03;43.18;102428.16;5053704;28;20033;-66
2022/01/20 04:29:24;;;;;;;6.00;1.45;;;;;;;18.03;43.11;102433.44;5052534;28;20025;-66
2022/01/20 04:31:50;;;;;;;6.70;1.45;;;;;;;18.02;43.32;102438.81;5052924;28;20037;-66
2022/01/20 04:34:16;;;;;;;6.30;1.67;;;;;;;18.03;43.22;102437.88;5053407;28;20028;-66
2022/01/20 04:36:44;;;;;;;7.50;1.70;;;;;;;18.02;43.32;102439.63;5053915;28;20017;-67
2022/01/20 04:39:14;;;;;;;5.97;1.30;;;;;;;18.02;43.56;102452.84;5052368;28;20098;-66
2022/01/20 04:41:39;;;;;;;6.88;1.77;;;;;;;18.03;43.69;102457.19;5053492;28;20036;-66
2022/01/20 04:44:16;;;;;;;5.55;1.55;;;;;;;18.01;43.50;102455.56;5053706;28;20021;-66
2022/01/20 04:57:40;;;;;;;7.25;1.40;;;;;;;18.05;43.97;102457.09;5053486;28;20043;-66
2022/01/20 05:00:06;;;;;;;5.55;1.25;;;;;;;18.04;43.97;102464.19;5052500;28;20070;-66
2022/01/20 05:02:31;;;;;;;6.82;1.35;;;;;;;18.05;43.52;102471.13;5053142;28;20043;-67
2022/01/20 05:04:59;;;;;;;7.70;1.33;;;;;;;18.05;44.06;102470.28;5053045;28;20116;-66
2022/01/20 05:07:27;;;;;;;6.88;1.50;;;;;;;18.05;43.90;102486.13;5051958;28;20281;-66
2022/01/20 05:09:54;;;;;;;5.65;1.38;;;;;;;18.05;44.23;102486.97;5052968;28;20075;-66
2022/01/20 05:12:26;;;;;;;6.43;1.40;;;;;;;18.07;43.95;102494.78;5052885;28;20036;-67
2022/01/20 05:14:51;;;;;;;4.85;1.10;;;;;;;18.07;44.22;102494.78;5052565;28;20071;-67
2022/01/20 05:17:16;;;;;;;8.77;1.50;;;;;;;18.08;44.09;102491.22;5052803;28;20033;-67
2022/01/20 05:19:42;;;;;;;6.78;1.40;;;;;;;18.09;43.82;102492.94;5052904;28;20376;-67
2022/01/20 05:22:07;;;;;;;7.00;1.63;;;;;;;18.05;44.16;102484.31;5051838;28;20082;-67
2022/01/20 05:24:32;;;;;;;5.95;1.55;;;;;;;18.10;43.85;102500.78;5052932;28;20035;-66
2022/01/20 05:26:57;;;;;;;6.13;1.30;;;;;;;18.10;44.24;102507.81;5052722;28;20037;-66
2022/01/20 05:29:23;;;;;;;5.50;1.10;;;;;;;18.11;43.88;102507.75;5051847;28;20289;-66
2022/01/20 05:31:50;;;;;;;4.95;1.30;;;;;;;18.10;44.30;102508.69;5052829;28;20025;-66
2022/01/20 05:34:15;;;;;;;8.15;1.60;;;;;;;18.10;44.15;102511.34;5051821;28;20055;-65
2022/01/20 05:36:42;;;;;;;6.05;1.50;;;;;;;18.10;43.90;102506.06;5052637;28;20530;-65
2022/01/20 05:39:09;;;;;;;6.82;1.40;;;;;;;18.10;44.11;102511.34;5051820;28;20068;-66
2022/01/20 05:41:34;;;;;;;6.57;1.80;;;;;;;18.12;44.41;102535.00;5051671;28;20475;-67
2022/01/20 05:43:59;;;;;;;9.88;1.80;;;;;;;18.12;44.17;102545.56;5052698;28;20036;-66
2022/01/20 05:46:33;;;;;;;7.28;1.25;;;;;;;18.11;44.24;102528.84;5052240;28;20021;-66
2022/01/20 05:49:08;;;;;;;7.72;1.70;;;;;;;18.13;44.36;102526.13;5051713;28;20033;-66
2022/01/20 05:51:38;;;;;;;6.28;1.60;;;;;;;18.14;44.13;102538.41;5052702;28;20059;-66
2022/01/20 05:54:04;;;;;;;6.15;1.13;;;;;;;18.12;43.94;102546.38;5052526;28;20032;-67
2022/01/20 05:56:30;;;;;;;6.40;1.63;;;;;;;18.16;44.25;102554.13;5051441;28;20037;-67
2022/01/20 05:58:55;;;;;;;6.22;1.42;;;;;;;18.13;44.05;102563.06;5052693;28;20040;-67
2022/01/20 06:01:21;;;;;;;5.72;1.20;;;;;;;18.14;43.99;102556.88;5051977;28;20107;-67
2022/01/20 06:03:46;;;;;;;8.07;1.50;;;;;;;18.13;44.04;102568.34;5051658;28;20037;-67
2022/01/20 06:06:13;;;;;;;7.72;1.42;;;;;;;18.13;44.54;102565.69;5052282;28;20465;-67
2022/01/20 06:08:42;;;;;;;6.40;1.30;;;;;;;18.15;45.03;102565.63;5052290;28;20488;-67
2022/01/20 06:11:08;;;;;;;7.10;1.25;;;;;;;18.17;45.03;102569.06;5051201;28;20047;-66
2022/01/20 06:13:33;;;;;;;7.43;1.40;;;;;;;18.19;45.61;102575.94;5052211;28;20021;-66
2022/01/20 06:16:01;;;;;;;6.78;1.40;;;;;;;18.20;45.27;102577.66;5052064;28;20026;-66
2022/01/20 06:18:26;;;;;;;7.63;1.67;;;;;;;18.23;45.69;102574.84;5051141;28;20694;-66
2022/01/20 06:20:52;;;;;;;7.63;1.90;;;;;;;18.25;45.48;102577.41;5052442;28;20049;-65
2022/01/20 06:23:18;;;;;;;6.30;1.20;;;;;;;18.27;45.91;102580.78;5052007;28;20029;-66
2022/01/20 06:25:43;;;;;;;4.80;1.30;;;;;;;18.29;45.64;102586.84;5051473;28;20499;-66
2022/01/20 06:28:09;;;;;;;7.03;1.48;;;;;;;18.30;45.67;102599.09;5051762;28;20021;-66
2022/01/20 06:30:35;;;;;;;6.03;1.27;;;;;;;18.33;45.92;102598.94;5051371;28;20045;-66
2022/01/20 06:33:01;;;;;;;5.95;1.20;;;;;;;18.35;45.59;102599.69;5052434;28;20033;-66
2022/01/20 06:35:27;;;;;;;4.18;1.10;;;;;;;18.37;45.71;102594.34;5051806;28;20043;-66
2022/01/20 06:37:52;;;;;;;5.88;1.00;;;;;;;18.38;45.61;102602.19;5051079;28;20053;-66
2022/01/20 06:40:18;;;;;;;8.20;1.85;;;;;;;18.41;45.41;102606.44;5051784;28;20037;-66
2022/01/20 06:42:44;;;;;;;7.70;1.55;;;;;;;18.41;45.76;102601.16;5051919;28;20033;-66
2022/01/20 06:45:12;;;;;;;7.25;1.63;;;;;;;18.41;45.44;102602.00;5050826;28;20071;-66
2022/01/20 06:47:44;;;;;;;6.95;1.30;;;;;;;18.44;45.48;102614.19;5052241;28;20112;-68
2022/01/20 06:50:11;;;;;;;5.55;1.27;;;;;;;18.44;45.56;102616.84;5051810;28;20025;-67
2022/01/20 06:52:38;;;;;;;6.78;1.40;;;;;;;18.45;45.34;102622.03;5053795;28;20064;-67
2022/01/20 06:55:05;;;;;;;6.80;1.45;;;;;;;18.45;45.41;102622.03;5055660;28;20025;-66
2022/01/20 06:57:34;;;;;;;6.15;1.25;;;;;;;18.47;45.51;102625.44;5055189;28;20036;-67
2022/01/20 07:00:00;;;;;;;4.93;1.02;;;;;;;18.47;45.67;102625.44;5054686;28;20017;-67
2022/01/20 07:02:26;;;;;;;5.30;1.25;;;;;;;18.47;44.48;102640.44;5054919;28;20052;-66
2022/01/20 07:04:51;;;;;;;6.80;1.35;;;;;;;18.46;45.55;102638.72;5055439;28;20040;-68
2022/01/20 07:07:17;;;;;;;6.85;1.50;;;;;;;18.48;45.66;102648.28;5054389;28;20017;-67
2022/01/20 07:09:43;;;;;;;6.68;1.58;;;;;;;18.52;45.70;102650.72;5055419;28;20101;-69
2022/01/20 07:12:10;;;;;;;9.07;1.45;;;;;;;18.56;45.46;102654.91;5055033;28;20540;-66
2022/01/20 07:14:35;;;;;;;7.97;1.83;;;;;;;18.55;45.43;102648.78;5054505;28;20017;-67
2022/01/20 07:17:00;;;;;;;7.95;1.70;;;;;;;18.60;45.74;102662.56;5055347;28;20151;-66
2022/01/20 07:19:26;;;;;;;6.57;1.48;;;;;;;18.55;44.56;102659.34;5054918;28;20477;-66
2022/01/20 07:21:51;;;;;;;6.57;1.33;;;;;;;18.58;45.18;102661.81;5054387;28;20063;-67
2022/01/20 07:24:16;;;;;;;7.05;1.35;;;;;;;18.59;45.19;102660.03;5054698;28;20032;-67
2022/01/20 07:26:41;;;;;;;5.53;1.50;;;;;;;18.62;45.78;102663.34;5055127;28;20099;-67
2022/01/20 07:29:07;;;;;;;7.00;1.08;;;;;;;18.65;45.93;102675.53;5054047;28;20355;-68
2022/01/20 07:31:34;;;;;;;5.68;1.45;;;;;;;18.68;45.36;102683.28;5054935;28;20032;-68
2022/01/20 07:33:59;;;;;;;6.53;1.30;;;;;;;18.71;45.60;102676.97;5053984;28;20056;-68
2022/01/20 07:36:24;;;;;;;7.03;1.50;;;;;;;18.71;45.66;102690.16;5054511;28;20198;-68
2022/01/20 07:38:53;;;;;;;5.53;1.40;;;;;;;18.71;45.89;102688.41;5054685;28;20045;-67
2022/01/20 07:41:19;;;;;;;5.70;1.20;;;;;;;18.75;45.92;102697.84;5053746;28;20025;-68
2022/01/20 07:43:44;;;;;;;8.80;1.48;;;;;;;18.75;44.96;102691.72;5054496;28;20047;-70
2022/01/20 07:46:10;;;;;;;7.38;1.75;;;;;;;18.74;44.94;102700.56;5054285;28;20028;-66
2022/01/20 07:48:35;;;;;;;6.45;1.85;;;;;;;18.72;45.58;102695.38;5054012;28;20052;-67
2022/01/20 07:51:02;;;;;;;6.10;1.60;;;;;;;18.74;45.71;102696.16;5054574;28;20063;-67
2022/01/20 07:53:27;;;;;;;6.65;1.70;;;;;;;18.76;45.49;102704.00;5054151;28;20047;-66
2022/01/20 07:55:52;;;;;;;8.15;1.52;;;;;;;18.75;45.78;102708.41;5053650;28;20025;-65
2022/01/20 07:58:18;;;;;;;5.38;1.52;;;;;;;18.79;45.42;102711.75;5053898;28;20025;-65
2022/01/20 08:00:44;;;;;;;6.00;1.35;;;;;;;18.76;44.26;102706.66;5054496;28;20036;-67
2022/01/20 08:03:09;;;;;;;7.50;1.75;;;;;;;18.74;44.66;102717.28;5053096;28;20048;-69
2022/01/20 08:05:34;;;;;;;7.20;2.03;;;;;;;18.78;45.07;102720.63;5054982;28;20508;-66
2022/01/20 08:07:59;;;;;;;9.70;2.00;;;;;;;18.83;45.75;102708.88;5055082;28;20286;-67
2022/01/20 08:10:25;;;;;;;6.90;1.53;;;;;;;18.97;45.31;102712.56;5054388;28;20478;-69
2022/01/20 08:12:50;;;;;;;7.68;1.45;;;;;;;19.08;45.35;102717.25;5055758;28;20780;-65
2022/01/20 08:15:15;;;;;;;7.50;1.70;;;;;;;19.20;45.25;102729.75;5054918;28;20400;-68
2022/01/20 08:17:43;;;;;;;6.45;1.73;;;;;;;19.28;45.06;102738.13;5053478;28;20114;-61
2022/01/20 08:20:11;;;;;;;8.55;1.55;;;;;;;19.28;45.09;102743.44;5053689;28;20025;-62
2022/01/20 08:22:37;;;;;;;8.90;1.92;;;;;;;19.26;45.26;102739.16;5053743;28;20488;-62
2022/01/20 08:25:08;;;;;;;9.15;1.55;;;;;;;19.22;45.28;102746.41;5053024;28;20035;-62
2022/01/20 08:27:34;;;;;;;7.05;1.65;;;;;;;19.19;45.52;102744.78;5053910;28;20026;-61
2022/01/20 08:29:59;;;;;;;8.35;1.95;;;;;;;19.19;45.38;102754.50;5054022;28;20108;-64
2022/01/20 08:32:25;;;;;;;7.22;1.40;;;;;;;19.17;45.57;102756.41;5052795;28;20114;-64
2022/01/20 08:34:50;;;;;;;7.18;2.10;;;;;;;19.16;45.49;102744.09;5053836;28;20433;-62
2022/01/20 08:37:16;;;;;;;8.38;1.55;;;;;;;19.15;45.69;102745.91;5052466;28;20052;-61
2022/01/20 08:39:44;;;;;;;7.95;2.03;;;;;;;19.16;45.37;102754.69;5053504;28;20112;-62
2022/01/20 08:42:11;;;;;;;7.38;1.85;;;;;;;19.17;45.71;102753.75;5053284;28;20036;-66
2022/01/20 08:44:37;;;;;;;7.45;1.60;;;;;;;19.17;45.67;102757.22;5052928;28;20040;-63
2022/01/20 08:47:09;;;;;;;7.68;2.03;;;;;;;19.18;45.99;102763.38;5053730;28;20029;-67
2022/01/20 08:49:34;;;;;;;6.57;1.83;;;;;;;19.18;45.79;102763.38;5053637;28;20075;-66
2022/01/20 08:52:00;;;;;;;8.77;1.92;;;;;;;19.18;45.65;102764.25;5052707;28;20037;-65
2022/01/20 08:54:25;;;;;;;6.35;1.55;;;;;;;19.17;45.56;102767.81;5053004;28;20473;-64
2022/01/20 08:56:53;;;;;;;7.77;2.10;;;;;;;19.18;45.75;102776.59;5053148;28;20071;-67
2022/01/20 08:59:19;;;;;;;7.03;1.67;;;;;;;19.18;45.77;102773.94;5052217;28;20607;-65
2022/01/20 09:01:44;;;;;;;6.60;1.83;;;;;;;19.18;45.73;102773.94;5053230;28;20036;-65
2022/01/20 09:04:10;;;;;;;6.68;1.40;;;;;;;19.18;45.99;102780.09;5052910;28;20108;-66
2022/01/20 09:06:35;;;;;;;9.33;1.50;;;;;;;19.20;45.88;102777.34;5052343;28;20029;-66
2022/01/20 09:09:00;;;;;;;7.68;1.50;;;;;;;19.20;46.03;102782.63;5052959;28;20289;-65
2022/01/20 09:11:34;;;;;;;5.93;1.27;;;;;;;19.20;45.86;102787.91;5052888;28;20079;-66
2022/01/20 09:16:44;;;;;;;8.93;1.95;;;;;;;19.18;45.87;102803.88;5053117;28;20056;-66
2022/01/20 09:19:09;;;;;;;7.00;1.75;;;;;;;19.17;45.87;102810.09;5052657;28;20457;-67
2022/01/20 09:21:35;;;;;;;6.50;1.67;;;;;;;19.18;46.18;102819.75;5051897;28;20070;-68
2022/01/20 09:24:00;;;;;;;13.15;1.95;;;;;;;19.18;45.78;102819.75;5052982;28;20037;-67
2022/01/20 09:26:46;;;;;;;8.10;1.58;;;;;;;19.18;45.88;102818.88;5051767;28;20447;-67
2022/01/20 09:29:14;;;;;;;8.73;1.60;;;;;;;19.16;44.64;102810.19;5052098;28;20492;-68
2022/01/20 09:31:39;;;;;;;11.80;2.20;;;;;;;19.12;44.36;102808.63;5052781;28;20056;-67
2022/01/20 09:34:05;;;;;;;8.43;2.08;;;;;;;19.10;45.33;102807.88;5051873;28;20064;-67
2022/01/20 09:36:31;;;;;;;7.22;1.85;;;;;;;19.08;45.58;102805.31;5052330;28;20078;-68
2022/01/20 09:38:56;;;;;;;7.60;1.60;;;;;;;19.09;45.82;102814.94;5052564;28;20044;-68
2022/01/20 09:41:21;;;;;;;10.23;1.70;;;;;;;19.06;43.94;102799.25;5051659;28;20560;-68
2022/01/20 09:43:47;;;;;;;11.63;1.63;;;;;;;19.00;41.83;102797.78;5052653;28;20029;-68
2022/01/20 09:46:12;;;;;;;6.03;1.50;;;;;;;18.96;44.15;102795.41;5052356;28;20533;-68
2022/01/20 09:48:37;;;;;;;7.50;1.63;;;;;;;18.94;44.89;102806.03;5051930;28;20020;-68
2022/01/20 09:51:06;;;;;;;9.70;1.43;;;;;;;18.94;45.39;102811.34;5052789;28;20021;-66
2022/01/20 09:53:31;;;;;;;5.85;1.30;;;;;;;18.95;45.38;102810.41;5052586;28;20275;-67
2022/01/20 09:55:57;;;;;;;7.97;1.83;;;;;;;18.98;45.51;102812.88;5051829;28;20033;-66
2022/01/20 09:58:23;;;;;;;6.88;1.17;;;;;;;18.94;43.50;102826.34;5052110;28;20472;-66
2022/01/20 10:00:49;;;;;;;7.60;1.85;;;;;;;18.93;44.89;102832.56;5052267;28;20037;-67
2022/01/20 10:03:20;;;;;;;11.07;1.67;;;;;;;18.94;45.41;102839.56;5051132;28;20502;-66
2022/01/20 10:05:49;;;;;;;5.60;1.58;;;;;;;18.96;45.25;102854.41;5052711;28;20032;-68
2022/01/20 10:08:24;;;;;;;7.10;1.90;;;;;;;18.97;45.09;102853.44;5052229;28;20116;-68
2022/01/20 10:10:50;;;;;;;8.88;2.08;;;;;;;19.00;45.14;102852.44;5051738;28;20056;-68
2022/01/20 10:13:20;;;;;;;9.35;2.13;;;;;;;19.01;45.43;102852.34;5053353;28;20480;-67
2022/01/20 10:16:16;;;;;;;9.98;1.80;;;;;;;19.05;45.48;102855.69;5052408;28;20431;-67
2022/01/20 10:18:51;;;;;;;6.38;1.52;;;;;;;19.09;45.33;102851.06;5047336;28;20041;-67
2022/01/20 10:21:17;;;;;;;8.40;1.77;;;;;;;19.10;45.55;102856.28;5052074;28;20021;-67
2022/01/20 10:23:48;;;;;;;7.18;1.48;;;;;;;19.15;45.03;102863.97;5052194;28;20025;-69
2022/01/20 10:26:19;;;;;;;10.45;1.90;;;;;;;19.23;44.94;102863.56;5052803;28;20021;-67
2022/01/20 10:28:47;;;;;;;10.60;1.90;;;;;;;19.29;44.97;102869.34;5056436;28;20400;-61
2022/01/20 10:31:15;;;;;;;11.60;1.95;;;;;;;19.28;44.86;102872.09;5055091;28;20029;-66
2022/01/20 10:33:41;;;;;;;10.43;1.80;;;;;;;19.26;44.92;102873.97;5056552;28;20033;-63
2022/01/20 10:36:08;;;;;;;11.00;1.73;;;;;;;19.25;45.33;102878.41;5055810;28;20025;-64
2022/01/20 10:38:33;;;;;;;15.63;1.70;;;;;;;19.24;45.46;102884.63;5054938;28;20401;-63
2022/01/20 10:40:59;;;;;;;12.55;1.80;;;;;;;19.22;45.50;102883.88;5056143;28;20082;-64
2022/01/20 10:43:27;;;;;;;10.43;1.92;;;;;;;19.21;45.37;102882.13;5055550;28;20033;-65
2022/01/20 10:46:08;;;;;;;13.20;1.85;;;;;;;19.21;45.70;102884.78;5055142;28;20389;-65
2022/01/20 10:48:37;;;;;;;9.70;1.80;;;;;;;19.21;45.99;102890.06;5055764;28;20067;-66
2022/01/20 10:51:17;;;;;;;17.15;2.40;;;;;;;19.21;45.99;102884.78;5054801;28;20032;-65
2022/01/20 10:53:42;;;;;;;10.32;1.63;;;;;;;19.21;46.23;102884.78;5055523;28;20485;-64
2022/01/20 10:56:07;;;;;;;12.70;2.10;;;;;;;19.20;46.31;102889.22;5055273;28;20031;-64
2022/01/20 10:58:33;;;;;;;19.27;1.77;;;;;;;19.21;46.10;102882.13;5054897;28;20653;-65
2022/01/20 11:01:00;;;;;;;9.95;2.20;;;;;;;19.21;46.10;102874.22;5055434;28;20033;-64
2022/01/20 11:03:27;;;;;;;10.40;1.40;;;;;;;19.19;45.98;102879.56;5054951;28;20519;-65
2022/01/20 11:05:54;;;;;;;9.93;1.90;;;;;;;19.20;46.20;102877.78;5054501;28;20035;-65
2022/01/20 11:08:20;;;;;;;14.80;1.85;;;;;;;19.20;46.32;102881.28;5055127;28;20108;-64
2022/01/20 11:10:46;;;;;;;9.63;1.85;;;;;;;19.20;46.23;102878.66;5055286;28;20025;-63
2022/01/20 11:13:13;;;;;;;11.10;2.10;;;;;;;19.21;46.12;102888.28;5054267;28;20032;-68
2022/01/20 11:15:40;;;;;;;9.05;1.40;;;;;;;19.26;46.24;102882.75;5056284;28;20116;-67
2022/01/20 11:18:09;;;;;;;10.02;1.80;;;;;;;19.35;46.31;102887.53;5055070;28;20075;-65
2022/01/20 11:20:43;;;;;;;10.68;2.13;;;;;;;19.38;46.36;102891.81;5054226;28;20440;-66
2022/01/20 11:23:08;;;;;;;10.65;1.90;;;;;;;19.38;46.25;102883.88;5054616;28;20032;-65
2022/01/20 11:25:37;;;;;;;9.60;1.88;;;;;;;19.38;46.36;102887.38;5055113;28;20385;-65
2022/01/20 11:28:15;;;;;;;10.32;2.08;;;;;;;19.38;46.15;102889.16;5054283;28;20017;-65
2022/01/20 11:30:52;;;;;;;10.45;1.60;;;;;;;19.38;46.24;102889.16;5054963;28;20045;-65
2022/01/20 11:33:18;;;;;;;8.90;2.33;;;;;;;19.37;46.04;102884.81;5053945;28;20066;-66
2022/01/20 11:35:50;;;;;;;7.97;1.90;;;;;;;19.34;46.13;102883.19;5054947;28;20036;-63
2022/01/20 11:38:45;;;;;;;12.10;1.98;;;;;;;19.31;45.96;102880.72;5053720;28;20037;-65
2022/01/20 11:41:16;;;;;;;9.77;1.70;;;;;;;19.25;45.09;102875.75;5053639;28;20028;-66
2022/01/20 11:43:47;;;;;;;11.25;1.70;;;;;;;19.24;45.83;102873.22;5054757;28;20090;-66
2022/01/20 11:46:16;;;;;;;10.75;2.05;;;;;;;19.22;45.93;102875.94;5054403;28;20041;-66
2022/01/20 11:49:03;;;;;;;11.68;2.05;;;;;;;19.16;43.52;102874.47;5053851;28;20563;-66
2022/01/20 11:51:58;;;;;;;11.52;2.80;;;;;;;19.12;45.46;102870.28;5054094;28;20025;-66
2022/01/20 11:54:23;;;;;;;7.45;1.52;;;;;;;19.11;45.71;102870.38;5053800;28;20033;-65
2022/01/20 11:56:49;;;;;;;8.03;1.70;;;;;;;19.09;45.75;102878.38;5054481;28;20025;-66
2022/01/20 11:59:15;;;;;;;9.10;1.60;;;;;;;19.08;46.09;102873.19;5054045;28;20037;-66
2022/01/20 12:01:53;;;;;;;9.52;1.83;;;;;;;19.08;45.60;102865.25;5053536;28;20021;-65
2022/01/20 12:04:34;;;;;;;12.30;1.98;;;;;;;19.07;45.62;102874.94;5053884;28;20029;-65
2022/01/20 12:06:59;;;;;;;5.72;1.60;;;;;;;19.07;45.67;102882.03;5054162;28;20542;-65
2022/01/20 12:09:36;;;;;;;13.32;1.80;;;;;;;19.06;45.47;102878.53;5053113;28;20056;-65
2022/01/20 12:12:18;;;;;;;7.88;1.70;;;;;;;19.06;45.73;102867.97;5054253;28;20156;-65
2022/01/20 12:14:47;;;;;;;7.55;1.73;;;;;;;19.07;45.31;102866.16;5054293;28;20033;-65
2022/01/20 12:17:17;;;;;;;9.60;1.88;;;;;;;19.06;45.37;102852.13;5053264;28;20056;-64
2022/01/20 12:19:53;;;;;;;13.35;1.75;;;;;;;19.05;45.45;102850.41;5053931;28;20505;-65
2022/01/20 12:22:21;;;;;;;8.88;1.83;;;;;;;19.05;45.64;102847.75;5052759;28;20032;-65
2022/01/20 12:24:56;;;;;;;9.23;1.90;;;;;;;19.07;45.89;102847.66;5053871;28;20123;-65
2022/01/20 12:27:22;;;;;;;8.80;1.85;;;;;;;19.06;45.89;102848.59;5053706;28;20060;-65
2022/01/20 12:29:51;;;;;;;8.77;1.65;;;;;;;19.05;45.92;102845.09;5053239;28;20118;-66